Time;durP1;ratioP1;P1;durP2;ratioP2;P2;SDS_P1;SDS_P2;PMS_P1;PMS_P2;Temp;Humidity;BMP_temperature;BMP_pressure;BME280_temperature;BME280_humidity;BME280_pressure;Samples;Min_cycle;Max_cycle;Signal;HPM_P1;HPM_P2
2021/09/20 00:00:35;;;;;;;4.18;3.80;;;;;;;;;;5096755;28;20107;-60
2021/09/20 00:03:00;;;;;;;3.97;3.53;;;;;;;;;;5095363;28;20101;-61
2021/09/20 00:05:26;;;;;;;5.60;4.18;;;;;;;;;;5096530;28;20095;-60
2021/09/20 00:07:51;;;;;;;4.35;3.67;;;;;;;;;;5096346;28;20035;-60
2021/09/20 00:10:17;;;;;;;4.25;3.80;;;;;;;;;;5096222;28;20031;-59
2021/09/20 00:12:43;;;;;;;3.70;3.40;;;;;;;;;;5096338;28;20081;-59
2021/09/20 00:15:09;;;;;;;3.78;3.47;;;;;;;;;;5096216;28;20016;-59
2021/09/20 00:17:35;;;;;;;4.60;3.33;;;;;;;;;;5096291;28;20024;-60
2021/09/20 00:20:01;;;;;;;4.32;3.92;;;;;;;;;;5096243;28;20524;-60
2021/09/20 00:22:26;;;;;;;3.65;3.35;;;;;;;;;;5096456;28;20107;-59
2021/09/20 00:24:52;;;;;;;4.30;3.90;;;;;;;;;;5096326;28;20027;-59
2021/09/20 00:27:17;;;;;;;4.05;3.75;;;;;;;;;;5096047;28;20028;-59
2021/09/20 00:29:45;;;;;;;4.45;3.58;;;;;;;;;;5094750;28;20028;-59
2021/09/20 00:32:10;;;;;;;5.90;3.55;;;;;;;;;;5095903;28;20063;-59
2021/09/20 00:34:36;;;;;;;4.45;3.55;;;;;;;;;;5096119;28;20046;-59
2021/09/20 00:37:01;;;;;;;4.97;3.40;;;;;;;;;;5095550;28;20112;-59
2021/09/20 00:39:27;;;;;;;4.32;3.92;;;;;;;;;;5096380;28;20382;-60
2021/09/20 00:41:52;;;;;;;4.85;3.65;;;;;;;;;;5096000;28;20028;-60
2021/09/20 00:44:18;;;;;;;4.38;3.92;;;;;;;;;;5095596;28;20117;-60
2021/09/20 00:46:43;;;;;;;4.85;4.28;;;;;;;;;;5095903;28;20026;-60
2021/09/20 00:49:09;;;;;;;8.35;4.15;;;;;;;;;;5095682;28;20032;-60
2021/09/20 00:51:34;;;;;;;4.32;3.78;;;;;;;;;;5095518;28;20096;-60
2021/09/20 00:54:00;;;;;;;4.60;4.20;;;;;;;;;;5095322;28;20034;-60
2021/09/20 00:56:26;;;;;;;6.20;4.18;;;;;;;;;;5095837;28;20077;-60
2021/09/20 00:58:51;;;;;;;4.85;3.83;;;;;;;;;;5093746;28;20031;-59
2021/09/20 01:01:17;;;;;;;5.55;4.20;;;;;;;;;;5095315;28;20031;-59
2021/09/20 01:03:42;;;;;;;4.40;4.00;;;;;;;;;;5095425;28;20073;-60
2021/09/20 01:06:11;;;;;;;7.80;4.20;;;;;;;;;;5095375;28;20036;-60
2021/09/20 01:08:37;;;;;;;6.80;3.95;;;;;;;;;;5095213;28;20070;-60
2021/09/20 01:11:02;;;;;;;4.68;4.00;;;;;;;;;;5095042;28;20028;-60
2021/09/20 01:13:28;;;;;;;4.45;4.13;;;;;;;;;;5095101;28;20107;-60
2021/09/20 01:15:54;;;;;;;5.05;4.57;;;;;;;;;;5095023;28;20101;-59
2021/09/20 01:18:19;;;;;;;7.82;3.97;;;;;;;;;;5095126;28;20024;-59
2021/09/20 01:20:45;;;;;;;5.90;4.72;;;;;;;;;;5094870;28;20247;-59
2021/09/20 01:23:11;;;;;;;8.30;5.38;;;;;;;;;;5095014;28;20103;-60
2021/09/20 01:25:36;;;;;;;8.68;4.82;;;;;;;;;;5095081;28;20024;-59
2021/09/20 01:28:02;;;;;;;5.43;4.50;;;;;;;;;;5094702;28;20349;-59
2021/09/20 01:30:28;;;;;;;6.35;4.80;;;;;;;;;;5094705;28;20096;-59
2021/09/20 01:32:53;;;;;;;8.68;5.80;;;;;;;;;;5094547;28;20110;-60
2021/09/20 01:35:19;;;;;;;7.50;6.22;;;;;;;;;;5094835;28;20028;-60
2021/09/20 01:37:45;;;;;;;6.38;5.60;;;;;;;;;;5094609;28;20114;-59
2021/09/20 01:40:11;;;;;;;6.15;5.25;;;;;;;;;;5094969;28;20107;-60
2021/09/20 01:42:37;;;;;;;5.25;4.32;;;;;;;;;;5094685;28;20020;-62
2021/09/20 01:45:03;;;;;;;4.53;3.90;;;;;;;;;;5093126;28;20612;-62
2021/09/20 01:47:29;;;;;;;4.80;4.18;;;;;;;;;;5094410;28;20028;-62
2021/09/20 01:49:54;;;;;;;4.00;3.70;;;;;;;;;;5094722;28;20109;-63
2021/09/20 01:52:20;;;;;;;6.43;4.50;;;;;;;;;;5094518;28;20050;-62
2021/09/20 01:54:52;;;;;;;6.80;4.45;;;;;;;;;;5094766;28;20031;-62
2021/09/20 01:57:22;;;;;;;4.25;3.92;;;;;;;;;;5094415;28;20082;-63
2021/09/20 01:59:48;;;;;;;5.32;4.00;;;;;;;;;;5093155;28;20047;-62
2021/09/20 02:02:13;;;;;;;4.93;4.53;;;;;;;;;;5093006;28;20036;-63
2021/09/20 02:04:39;;;;;;;4.65;4.18;;;;;;;;;;5094277;28;20107;-63
2021/09/20 02:07:04;;;;;;;4.43;4.07;;;;;;;;;;5094360;28;20464;-63
2021/09/20 02:09:30;;;;;;;4.80;4.30;;;;;;;;;;5093273;28;20024;-62
2021/09/20 02:11:55;;;;;;;4.95;4.45;;;;;;;;;;5094244;28;20032;-63
2021/09/20 02:14:21;;;;;;;5.18;4.38;;;;;;;;;;5094005;28;20019;-62
2021/09/20 02:16:46;;;;;;;5.07;4.47;;;;;;;;;;5094155;28;20031;-62
2021/09/20 02:19:12;;;;;;;4.75;4.35;;;;;;;;;;5092800;28;20020;-62
2021/09/20 02:21:38;;;;;;;4.65;4.20;;;;;;;;;;5094462;28;20059;-63
2021/09/20 02:24:04;;;;;;;6.03;4.40;;;;;;;;;;5093776;28;20051;-62
2021/09/20 02:26:29;;;;;;;6.63;4.65;;;;;;;;;;5093666;28;20032;-63
2021/09/20 02:28:54;;;;;;;5.43;4.60;;;;;;;;;;5092689;28;20475;-62
2021/09/20 02:31:20;;;;;;;4.97;4.50;;;;;;;;;;5093835;28;20035;-63
2021/09/20 02:33:46;;;;;;;5.47;4.38;;;;;;;;;;5093709;28;20115;-62
2021/09/20 02:36:11;;;;;;;4.93;4.43;;;;;;;;;;5093821;28;20038;-62
2021/09/20 02:38:38;;;;;;;5.38;4.68;;;;;;;;;;5093656;28;20031;-62
2021/09/20 02:41:04;;;;;;;4.68;4.28;;;;;;;;;;5093683;28;20586;-59
2021/09/20 02:43:36;;;;;;;5.05;4.07;;;;;;;;;;5093351;28;20137;-60
2021/09/20 02:46:01;;;;;;;4.18;3.88;;;;;;;;;;5092507;28;20036;-62
2021/09/20 02:48:27;;;;;;;4.60;4.20;;;;;;;;;;5093799;28;20020;-62
2021/09/20 02:50:53;;;;;;;4.53;4.00;;;;;;;;;;5093752;28;20043;-60
2021/09/20 02:53:18;;;;;;;4.97;4.25;;;;;;;;;;5093730;28;20023;-60
2021/09/20 02:55:44;;;;;;;5.18;4.32;;;;;;;;;;5093279;28;20115;-60
2021/09/20 02:58:10;;;;;;;4.80;3.97;;;;;;;;;;5093583;28;20057;-60
2021/09/20 03:00:35;;;;;;;6.15;4.57;;;;;;;;;;5092156;28;20036;-60
2021/09/20 03:03:01;;;;;;;4.38;4.00;;;;;;;;;;5093493;28;20016;-60
2021/09/20 03:05:27;;;;;;;4.53;4.13;;;;;;;;;;5093367;28;20036;-60
2021/09/20 03:07:53;;;;;;;4.53;4.13;;;;;;;;;;5093521;28;20008;-60
2021/09/20 03:10:18;;;;;;;4.05;3.75;;;;;;;;;;5093416;28;20352;-60
2021/09/20 03:12:45;;;;;;;4.20;3.70;;;;;;;;;;5093754;28;20016;-60
2021/09/20 03:15:10;;;;;;;4.50;3.67;;;;;;;;;;5092111;28;20039;-60
2021/09/20 03:17:36;;;;;;;4.78;4.38;;;;;;;;;;5093495;28;20013;-60
2021/09/20 03:20:02;;;;;;;3.88;3.58;;;;;;;;;;5091635;28;20066;-61
2021/09/20 03:22:27;;;;;;;4.18;3.83;;;;;;;;;;5096761;28;20024;-60
2021/09/20 03:24:53;;;;;;;4.00;3.63;;;;;;;;;;5097251;28;20031;-60
2021/09/20 03:27:19;;;;;;;5.00;3.97;;;;;;;;;;5097086;28;20022;-60
2021/09/20 03:29:45;;;;;;;4.28;3.95;;;;;;;;;;5097186;28;20492;-60
2021/09/20 03:32:15;;;;;;;4.40;4.00;;;;;;;;;;5097168;28;20026;-60
2021/09/20 03:34:41;;;;;;;6.90;4.00;;;;;;;;;;5097108;28;20031;-60
2021/09/20 03:37:07;;;;;;;4.25;3.92;;;;;;;;;;5095864;28;20016;-60
2021/09/20 03:39:32;;;;;;;4.25;3.85;;;;;;;;;;5096408;28;20069;-60
2021/09/20 03:41:58;;;;;;;4.25;3.85;;;;;;;;;;5096452;28;20039;-60
2021/09/20 03:44:23;;;;;;;4.80;4.30;;;;;;;;;;5095176;28;20042;-60
2021/09/20 03:46:49;;;;;;;4.95;3.90;;;;;;;;;;5096346;28;20084;-60
2021/09/20 03:49:15;;;;;;;4.80;4.20;;;;;;;;;;5096398;28;20032;-60
2021/09/20 03:51:40;;;;;;;5.40;4.03;;;;;;;;;;5096907;28;20070;-60
2021/09/20 03:54:06;;;;;;;4.43;4.07;;;;;;;;;;5096807;28;20024;-60
2021/09/20 03:56:31;;;;;;;4.90;4.50;;;;;;;;;;5096796;28;20019;-60
2021/09/20 03:58:57;;;;;;;4.63;4.22;;;;;;;;;;5096938;28;20052;-60
2021/09/20 04:01:22;;;;;;;4.78;4.38;;;;;;;;;;5096497;28;20023;-60
2021/09/20 04:03:48;;;;;;;4.72;4.28;;;;;;;;;;5096652;28;20028;-60
2021/09/20 04:06:13;;;;;;;4.93;4.50;;;;;;;;;;5096595;28;20027;-60
2021/09/20 04:08:40;;;;;;;5.10;4.65;;;;;;;;;;5096573;28;20103;-62
2021/09/20 04:11:05;;;;;;;5.45;4.95;;;;;;;;;;5094395;28;20387;-60
2021/09/20 04:13:30;;;;;;;5.35;4.95;;;;;;;;;;5096413;28;20036;-60
2021/09/20 04:15:56;;;;;;;5.68;5.10;;;;;;;;;;5095165;28;20035;-60
2021/09/20 04:18:24;;;;;;;5.93;5.05;;;;;;;;;;5096213;28;20028;-60
2021/09/20 04:20:51;;;;;;;5.68;5.18;;;;;;;;;;5094739;28;20055;-60
2021/09/20 04:23:18;;;;;;;5.70;5.20;;;;;;;;;;5096341;28;20028;-60
2021/09/20 04:25:43;;;;;;;6.68;5.85;;;;;;;;;;5096167;28;20429;-60
2021/09/20 04:28:09;;;;;;;6.10;5.50;;;;;;;;;;5096333;28;20032;-60
2021/09/20 04:30:34;;;;;;;5.90;5.40;;;;;;;;;;5096117;28;20107;-60
2021/09/20 04:33:01;;;;;;;6.00;5.40;;;;;;;;;;5095281;28;20020;-60
2021/09/20 04:35:26;;;;;;;6.80;5.53;;;;;;;;;;5095859;28;20016;-60
2021/09/20 04:37:52;;;;;;;5.53;5.07;;;;;;;;;;5096109;28;20032;-60
2021/09/20 04:40:18;;;;;;;6.50;5.63;;;;;;;;;;5095949;28;20016;-60
2021/09/20 04:42:43;;;;;;;5.90;5.40;;;;;;;;;;5095262;28;20024;-61
2021/09/20 04:45:09;;;;;;;5.60;5.10;;;;;;;;;;5095751;28;20028;-60
2021/09/20 04:47:35;;;;;;;5.50;5.07;;;;;;;;;;5095480;28;20054;-60
2021/09/20 04:50:00;;;;;;;5.75;5.22;;;;;;;;;;5095937;28;20012;-60
2021/09/20 04:52:26;;;;;;;5.40;5.00;;;;;;;;;;5095226;28;20067;-60
2021/09/20 04:54:51;;;;;;;5.22;4.82;;;;;;;;;;5095650;28;20016;-61
2021/09/20 04:57:17;;;;;;;5.18;4.78;;;;;;;;;;5096009;28;20397;-60
2021/09/20 04:59:42;;;;;;;4.93;4.50;;;;;;;;;;5094406;28;20074;-60
2021/09/20 05:02:08;;;;;;;4.53;4.22;;;;;;;;;;5095385;28;20082;-60
2021/09/20 05:04:38;;;;;;;4.40;4.03;;;;;;;;;;5095234;28;20106;-60
2021/09/20 05:07:03;;;;;;;5.40;4.43;;;;;;;;;;5095161;28;20117;-60
2021/09/20 05:09:29;;;;;;;3.60;3.40;;;;;;;;;;5095037;28;20258;-60
2021/09/20 05:11:55;;;;;;;3.33;3.03;;;;;;;;;;5093782;28;20036;-60
2021/09/20 05:14:20;;;;;;;3.88;3.58;;;;;;;;;;5094943;28;20026;-60
2021/09/20 05:16:45;;;;;;;3.67;3.22;;;;;;;;;;5095194;28;20365;-61
2021/09/20 05:19:11;;;;;;;3.38;3.08;;;;;;;;;;5093505;28;20022;-60
2021/09/20 05:21:36;;;;;;;2.92;2.78;;;;;;;;;;5094635;28;20111;-60
2021/09/20 05:24:02;;;;;;;2.78;2.42;;;;;;;;;;5094682;28;20456;-60
2021/09/20 05:26:27;;;;;;;3.15;2.85;;;;;;;;;;5094501;28;20024;-60
2021/09/20 05:28:53;;;;;;;2.65;2.53;;;;;;;;;;5094561;28;20020;-61
2021/09/20 05:31:18;;;;;;;2.85;2.70;;;;;;;;;;5094674;28;20438;-61
2021/09/20 05:33:44;;;;;;;2.75;2.55;;;;;;;;;;5094446;28;20107;-60
2021/09/20 05:36:09;;;;;;;3.28;2.97;;;;;;;;;;5094492;28;20031;-60
2021/09/20 05:38:35;;;;;;;3.65;3.35;;;;;;;;;;5094349;28;20043;-60
2021/09/20 05:41:01;;;;;;;2.97;2.78;;;;;;;;;;5094288;28;20034;-60
2021/09/20 05:43:26;;;;;;;3.30;3.03;;;;;;;;;;5093825;28;20048;-60
2021/09/20 05:45:52;;;;;;;3.15;2.90;;;;;;;;;;5094374;28;20384;-60
2021/09/20 05:48:19;;;;;;;4.05;3.72;;;;;;;;;;5094221;28;20027;-60
2021/09/20 05:50:45;;;;;;;3.42;3.20;;;;;;;;;;5094033;28;20032;-61
2021/09/20 05:53:11;;;;;;;3.33;3.08;;;;;;;;;;5093969;28;20020;-60
2021/09/20 05:55:36;;;;;;;3.28;3.08;;;;;;;;;;5092863;28;20055;-60
2021/09/20 05:58:02;;;;;;;3.58;3.15;;;;;;;;;;5094041;28;20467;-60
2021/09/20 06:00:27;;;;;;;3.58;3.28;;;;;;;;;;5094112;28;20027;-60
2021/09/20 06:02:53;;;;;;;3.50;3.20;;;;;;;;;;5093606;28;20512;-61
2021/09/20 06:05:18;;;;;;;4.28;3.88;;;;;;;;;;5094095;28;20036;-60
2021/09/20 06:07:44;;;;;;;4.53;3.92;;;;;;;;;;5093882;28;20051;-60
2021/09/20 06:10:10;;;;;;;5.10;4.60;;;;;;;;;;5093764;28;20457;-60
2021/09/20 06:12:36;;;;;;;3.78;3.42;;;;;;;;;;5093589;28;20032;-60
2021/09/20 06:15:02;;;;;;;4.63;4.32;;;;;;;;;;5093948;28;20383;-60
2021/09/20 06:17:28;;;;;;;5.20;4.65;;;;;;;;;;5094021;28;20043;-60
2021/09/20 06:19:53;;;;;;;4.68;4.28;;;;;;;;;;5093729;28;20451;-60
2021/09/20 06:22:19;;;;;;;4.75;4.30;;;;;;;;;;5093439;28;20020;-60
2021/09/20 06:24:44;;;;;;;4.05;3.45;;;;;;;;;;5093764;28;20028;-60
2021/09/20 06:27:10;;;;;;;5.20;4.40;;;;;;;;;;5092586;28;20024;-62
2021/09/20 06:29:35;;;;;;;4.38;3.97;;;;;;;;;;5092870;28;20054;-60
2021/09/20 06:32:01;;;;;;;4.00;3.70;;;;;;;;;;5092753;28;20376;-60
2021/09/20 06:34:32;;;;;;;3.30;3.10;;;;;;;;;;5092879;28;20036;-60
2021/09/20 06:37:00;;;;;;;4.05;3.78;;;;;;;;;;5093325;28;20020;-60
2021/09/20 06:39:26;;;;;;;4.22;3.80;;;;;;;;;;5093468;28;20020;-60
2021/09/20 06:41:51;;;;;;;4.40;4.10;;;;;;;;;;5093472;28;20501;-60
2021/09/20 06:44:17;;;;;;;3.60;3.38;;;;;;;;;;5091562;28;20051;-60
2021/09/20 06:46:44;;;;;;;3.67;3.38;;;;;;;;;;5093350;28;20056;-60
2021/09/20 06:49:09;;;;;;;3.55;3.25;;;;;;;;;;5093361;28;20020;-60
2021/09/20 06:51:35;;;;;;;3.60;3.30;;;;;;;;;;5093269;28;20074;-60
2021/09/20 06:54:00;;;;;;;3.63;3.33;;;;;;;;;;5093148;28;20455;-60
2021/09/20 06:56:26;;;;;;;3.40;3.20;;;;;;;;;;5092586;28;20122;-60
2021/09/20 06:58:51;;;;;;;2.65;2.53;;;;;;;;;;5093306;28;20024;-60
2021/09/20 07:01:17;;;;;;;3.22;3.00;;;;;;;;;;5093003;28;20032;-60
2021/09/20 07:03:42;;;;;;;2.85;2.65;;;;;;;;;;5093242;28;20027;-60
2021/09/20 07:06:09;;;;;;;3.20;2.90;;;;;;;;;;5091932;28;20483;-60
2021/09/20 07:08:34;;;;;;;2.55;2.42;;;;;;;;;;5091797;28;20016;-60
2021/09/20 07:11:00;;;;;;;2.63;2.42;;;;;;;;;;5092931;28;20391;-60
2021/09/20 07:13:26;;;;;;;3.13;2.78;;;;;;;;;;5092919;28;20106;-60
2021/09/20 07:15:51;;;;;;;2.80;2.60;;;;;;;;;;5092789;28;20535;-60
2021/09/20 07:18:17;;;;;;;3.70;2.53;;;;;;;;;;5092910;28;20105;-60
2021/09/20 07:20:44;;;;;;;2.60;2.40;;;;;;;;;;5092921;28;20073;-60
2021/09/20 07:23:11;;;;;;;3.20;3.00;;;;;;;;;;5091699;28;20024;-60
2021/09/20 07:25:37;;;;;;;2.88;2.67;;;;;;;;;;5092911;28;20127;-60
2021/09/20 07:28:02;;;;;;;2.80;2.60;;;;;;;;;;5092878;28;20107;-60
2021/09/20 07:30:28;;;;;;;3.35;2.78;;;;;;;;;;5092832;28;20118;-60
2021/09/20 07:32:53;;;;;;;3.47;3.00;;;;;;;;;;5092725;28;20020;-60
2021/09/20 07:35:19;;;;;;;2.72;2.53;;;;;;;;;;5092928;28;20468;-60
2021/09/20 07:37:50;;;;;;;3.85;2.88;;;;;;;;;;5091791;28;20099;-60
2021/09/20 07:40:16;;;;;;;4.43;3.20;;;;;;;;;;5092766;28;20123;-60
2021/09/20 07:42:41;;;;;;;3.00;2.80;;;;;;;;;;5092343;28;20103;-60
2021/09/20 07:45:08;;;;;;;3.13;2.92;;;;;;;;;;5092861;28;20463;-60
2021/09/20 07:47:34;;;;;;;3.00;2.80;;;;;;;;;;5092892;28;20380;-60
2021/09/20 07:50:00;;;;;;;3.00;2.80;;;;;;;;;;5092380;28;20035;-60
2021/09/20 07:52:25;;;;;;;2.50;2.40;;;;;;;;;;5093084;28;20487;-60
2021/09/20 07:54:52;;;;;;;7.30;2.60;;;;;;;;;;5092636;28;20040;-60
2021/09/20 07:57:17;;;;;;;3.10;2.50;;;;;;;;;;5092586;28;20026;-60
2021/09/20 07:59:44;;;;;;;3.53;2.70;;;;;;;;;;5092686;28;20024;-60
2021/09/20 08:02:09;;;;;;;6.00;2.63;;;;;;;;;;5092554;28;20024;-60
2021/09/20 08:04:36;;;;;;;3.70;2.33;;;;;;;;;;5092472;28;20020;-60
2021/09/20 08:07:01;;;;;;;3.33;2.60;;;;;;;;;;5092469;28;20020;-60
2021/09/20 08:09:30;;;;;;;2.78;2.58;;;;;;;;;;5095580;28;20039;-60
2021/09/20 08:11:55;;;;;;;3.10;2.90;;;;;;;;;;5096245;28;20422;-60
2021/09/20 08:14:21;;;;;;;3.30;3.08;;;;;;;;;;5095898;28;20032;-60
2021/09/20 08:16:46;;;;;;;3.10;2.42;;;;;;;;;;5096012;28;20020;-60
2021/09/20 08:19:12;;;;;;;3.30;2.92;;;;;;;;;;5096013;28;20027;-60
2021/09/20 08:21:38;;;;;;;2.75;2.55;;;;;;;;;;5094677;28;20016;-60
2021/09/20 08:24:03;;;;;;;2.40;2.30;;;;;;;;;;5095681;28;20043;-60
2021/09/20 08:26:29;;;;;;;3.15;2.30;;;;;;;;;;5095622;28;20105;-60
2021/09/20 08:28:54;;;;;;;3.05;2.75;;;;;;;;;;5095808;28;20534;-60
2021/09/20 08:31:20;;;;;;;3.75;2.63;;;;;;;;;;5095872;28;20020;-60
2021/09/20 08:33:46;;;;;;;2.60;2.50;;;;;;;;;;5095614;28;20085;-60
2021/09/20 08:36:11;;;;;;;2.67;2.40;;;;;;;;;;5095688;28;20020;-60
2021/09/20 08:38:37;;;;;;;3.95;2.08;;;;;;;;;;5095601;28;20470;-60
2021/09/20 08:41:03;;;;;;;2.00;1.90;;;;;;;;;;5095561;28;20061;-60
2021/09/20 08:43:28;;;;;;;2.08;1.90;;;;;;;;;;5095075;28;20043;-60
2021/09/20 08:45:56;;;;;;;1.95;1.85;;;;;;;;;;5095000;28;20487;-60
2021/09/20 08:48:21;;;;;;;2.78;1.90;;;;;;;;;;5095546;28;20078;-60
2021/09/20 08:50:46;;;;;;;3.65;2.83;;;;;;;;;;5095370;28;20467;-60
2021/09/20 08:53:12;;;;;;;3.10;2.90;;;;;;;;;;5095344;28;20361;-60
2021/09/20 08:55:38;;;;;;;4.68;3.30;;;;;;;;;;5095297;28;20089;-60
2021/09/20 08:58:04;;;;;;;3.70;3.50;;;;;;;;;;5095288;28;20392;-60
2021/09/20 09:00:29;;;;;;;3.60;2.90;;;;;;;;;;5095170;28;20101;-65
2021/09/20 09:02:55;;;;;;;3.17;2.97;;;;;;;;;;5095150;28;20035;-60
2021/09/20 09:05:24;;;;;;;3.08;2.55;;;;;;;;;;5095079;28;20098;-60
2021/09/20 09:07:55;;;;;;;2.73;2.17;;;;;;;;;;5095124;28;20429;-60
2021/09/20 09:10:22;;;;;;;2.80;2.60;;;;;;;;;;5095022;28;20028;-60
2021/09/20 09:12:48;;;;;;;2.67;2.47;;;;;;;;;;5095009;28;20416;-60
2021/09/20 09:15:15;;;;;;;2.75;2.55;;;;;;;;;;5094754;28;20035;-60
2021/09/20 09:17:45;;;;;;;2.10;2.00;;;;;;;;;;5094724;28;20039;-60
2021/09/20 09:20:15;;;;;;;2.58;2.38;;;;;;;;;;5094255;28;20064;-60
2021/09/20 09:22:57;;;;;;;1.80;1.70;;;;;;;;;;5094769;28;20032;-60
2021/09/20 09:25:23;;;;;;;1.60;1.50;;;;;;;;;;5094694;28;20024;-60
2021/09/20 09:27:49;;;;;;;1.92;1.73;;;;;;;;;;5094619;28;20106;-59
2021/09/20 09:30:20;;;;;;;1.50;1.40;;;;;;;;;;5094524;28;20032;-60
2021/09/20 09:32:47;;;;;;;1.33;1.23;;;;;;;;;;5094446;28;20035;-61
2021/09/20 09:35:13;;;;;;;3.55;1.55;;;;;;;;;;5094508;28;20020;-61
2021/09/20 09:37:40;;;;;;;1.38;1.27;;;;;;;;;;5094395;28;20020;-60
2021/09/20 09:40:05;;;;;;;1.20;1.20;;;;;;;;;;5094393;28;20017;-60
2021/09/20 09:42:31;;;;;;;1.08;1.02;;;;;;;;;;5093985;28;20380;-61
2021/09/20 09:44:57;;;;;;;1.30;1.20;;;;;;;;;;5094331;28;20185;-61
2021/09/20 09:47:27;;;;;;;1.50;1.38;;;;;;;;;;5092953;28;20028;-61
2021/09/20 09:50:11;;;;;;;14.73;11.70;;;;;;;;;;5094162;28;20110;-61
2021/09/20 09:52:37;;;;;;;1.33;1.23;;;;;;;;;;5094122;28;20032;-61
2021/09/20 09:55:02;;;;;;;1.13;1.10;;;;;;;;;;5094057;28;20020;-61
2021/09/20 09:57:28;;;;;;;1.00;0.90;;;;;;;;;;5094055;28;20057;-61
2021/09/20 10:00:01;;;;;;;0.88;0.88;;;;;;;;;;5094075;28;20020;-61
2021/09/20 10:02:41;;;;;;;2.45;1.25;;;;;;;;;;5094164;28;20514;-63
2021/09/20 10:05:07;;;;;;;1.48;1.38;;;;;;;;;;5093987;28;20032;-63
2021/09/20 10:08:00;;;;;;;1.60;1.50;;;;;;;;;;5093906;28;20149;-61
2021/09/20 10:10:29;;;;;;;1.23;1.15;;;;;;;;;;5091122;28;20494;-61
2021/09/20 10:12:58;;;;;;;1.02;1.02;;;;;;;;;;5094154;28;20020;-61
2021/09/20 10:15:24;;;;;;;1.30;1.20;;;;;;;;;;5094227;28;20032;-61
2021/09/20 10:17:53;;;;;;;47.10;8.95;;;;;;;;;;5093594;28;20376;-62
2021/09/20 10:20:20;;;;;;;6.60;2.40;;;;;;;;;;5094093;28;20035;-61
2021/09/20 10:22:46;;;;;;;6.78;4.93;;;;;;;;;;5094000;28;20024;-61
2021/09/20 10:25:12;;;;;;;1.27;1.20;;;;;;;;;;5092403;28;20043;-61
2021/09/20 10:27:38;;;;;;;0.80;0.80;;;;;;;;;;5093486;28;20094;-61
2021/09/20 10:30:04;;;;;;;1.08;0.98;;;;;;;;;;5093226;28;20032;-61
2021/09/20 10:32:30;;;;;;;1.00;1.00;;;;;;;;;;5093173;28;20053;-61
2021/09/20 10:35:13;;;;;;;1.38;0.90;;;;;;;;;;5093176;28;20032;-61
2021/09/20 10:37:39;;;;;;;1.63;1.30;;;;;;;;;;5092241;28;20024;-61
2021/09/20 10:40:09;;;;;;;2.47;1.17;;;;;;;;;;5093305;28;20017;-61
2021/09/20 10:42:34;;;;;;;1.55;1.30;;;;;;;;;;5092972;28;20034;-61
2021/09/20 10:45:00;;;;;;;2.45;1.90;;;;;;;;;;5092054;28;20024;-61
2021/09/20 10:47:40;;;;;;;11.10;4.40;;;;;;;;;;5093132;28;20032;-61
2021/09/20 10:50:05;;;;;;;1.27;1.25;;;;;;;;;;5092157;28;20038;-61
2021/09/20 10:52:31;;;;;;;1.40;1.30;;;;;;;;;;5093235;28;20027;-61
2021/09/20 10:55:08;;;;;;;1.83;1.10;;;;;;;;;;5093276;28;20028;-61
2021/09/20 10:57:34;;;;;;;1.40;1.30;;;;;;;;;;5093287;28;20024;-61
2021/09/20 11:00:18;;;;;;;1.10;1.10;;;;;;;;;;5093316;28;20045;-61
2021/09/20 11:02:44;;;;;;;2.97;1.27;;;;;;;;;;5093183;28;20032;-61
2021/09/20 11:05:09;;;;;;;1.25;1.25;;;;;;;;;;5091869;28;20023;-61
2021/09/20 11:07:45;;;;;;;3.83;2.10;;;;;;;;;;5093256;28;20115;-61
2021/09/20 11:10:10;;;;;;;0.95;0.95;;;;;;;;;;5093060;28;20057;-61
2021/09/20 11:12:56;;;;;;;1.13;1.13;;;;;;;;;;5092873;28;20067;-61
2021/09/20 11:15:22;;;;;;;1.48;1.38;;;;;;;;;;5092684;28;20060;-61
2021/09/20 11:17:49;;;;;;;1.60;1.50;;;;;;;;;;5093070;28;20059;-61
2021/09/20 11:20:16;;;;;;;1.67;1.58;;;;;;;;;;5092975;28;20031;-61
2021/09/20 11:22:41;;;;;;;1.10;1.00;;;;;;;;;;5092846;28;20099;-61
2021/09/20 11:25:13;;;;;;;1.30;1.20;;;;;;;;;;5092939;28;20127;-61
2021/09/20 11:27:41;;;;;;;1.38;1.27;;;;;;;;;;5092082;28;20032;-63
2021/09/20 11:30:11;;;;;;;1.88;1.25;;;;;;;;;;5092987;28;20055;-63
2021/09/20 11:32:52;;;;;;;3.95;1.45;;;;;;;;;;5093624;28;20043;-63
2021/09/20 11:35:18;;;;;;;1.50;1.40;;;;;;;;;;5093421;28;20028;-63
2021/09/20 11:37:44;;;;;;;2.75;1.40;;;;;;;;;;5092923;28;20142;-63
2021/09/20 11:40:20;;;;;;;2.97;1.35;;;;;;;;;;5091415;28;20592;-63
2021/09/20 11:42:47;;;;;;;1.45;1.30;;;;;;;;;;5094568;28;20035;-64
2021/09/20 11:45:21;;;;;;;1.55;1.45;;;;;;;;;;5096844;28;20043;-63
2021/09/20 11:47:52;;;;;;;1.40;1.30;;;;;;;;;;5096793;28;20077;-63
2021/09/20 11:50:20;;;;;;;1.55;1.30;;;;;;;;;;5096457;28;20035;-62
2021/09/20 11:52:48;;;;;;;2.88;1.20;;;;;;;;;;5096466;28;20024;-63
2021/09/20 11:55:18;;;;;;;1.08;1.08;;;;;;;;;;5096450;28;20036;-63
2021/09/20 11:57:48;;;;;;;1.08;1.00;;;;;;;;;;5096413;28;20081;-63
2021/09/20 12:00:15;;;;;;;1.42;1.40;;;;;;;;;;5096266;28;20444;-63
2021/09/20 12:02:42;;;;;;;1.40;1.30;;;;;;;;;;5096327;28;20032;-60
2021/09/20 12:05:14;;;;;;;2.10;1.48;;;;;;;;;;5096166;28;20020;-61
2021/09/20 12:07:45;;;;;;;1.67;1.58;;;;;;;;;;5096166;28;20426;-64
2021/09/20 12:10:11;;;;;;;2.67;1.98;;;;;;;;;;5095023;28;20082;-63
2021/09/20 12:12:37;;;;;;;4.22;1.90;;;;;;;;;;5096077;28;20020;-63
2021/09/20 12:15:13;;;;;;;1.63;1.52;;;;;;;;;;5096131;28;20066;-63
2021/09/20 12:17:46;;;;;;;2.08;1.88;;;;;;;;;;5096128;28;20107;-63
2021/09/20 12:20:12;;;;;;;3.78;1.60;;;;;;;;;;5095855;28;20059;-63
2021/09/20 12:22:39;;;;;;;1.92;1.80;;;;;;;;;;5095399;28;20062;-63
2021/09/20 12:25:23;;;;;;;4.30;1.80;;;;;;;;;;5095870;28;20032;-63
2021/09/20 12:27:48;;;;;;;5.07;1.90;;;;;;;;;;5095773;28;20024;-63
2021/09/20 12:30:18;;;;;;;2.00;1.90;;;;;;;;;;5095949;28;20073;-63
2021/09/20 12:32:43;;;;;;;2.22;1.92;;;;;;;;;;5095643;28;20415;-63
2021/09/20 12:35:09;;;;;;;3.95;1.98;;;;;;;;;;5095583;28;20031;-63
2021/09/20 12:37:35;;;;;;;2.20;2.10;;;;;;;;;;5095764;28;20035;-63
2021/09/20 12:40:16;;;;;;;2.30;2.10;;;;;;;;;;5095564;28;20533;-63
2021/09/20 12:42:42;;;;;;;2.35;2.15;;;;;;;;;;5095143;28;20502;-61
2021/09/20 12:45:16;;;;;;;2.60;2.40;;;;;;;;;;5095653;28;20059;-61
2021/09/20 12:47:41;;;;;;;3.63;2.30;;;;;;;;;;5095486;28;20487;-61
2021/09/20 12:50:10;;;;;;;3.15;2.85;;;;;;;;;;5095336;28;20024;-61
2021/09/20 12:52:41;;;;;;;2.60;2.40;;;;;;;;;;5093960;28;20490;-61
2021/09/20 12:55:07;;;;;;;19.40;9.70;;;;;;;;;;5094599;28;20064;-61
2021/09/20 12:57:33;;;;;;;3.15;2.95;;;;;;;;;;5095316;28;20069;-61
2021/09/20 13:00:06;;;;;;;14.07;5.80;;;;;;;;;;5095170;28;20088;-61
2021/09/20 13:02:35;;;;;;;17.27;8.07;;;;;;;;;;5095251;28;20028;-61
2021/09/20 13:05:01;;;;;;;21.00;8.73;;;;;;;;;;5095099;28;20109;-61
2021/09/20 13:07:30;;;;;;;5.32;4.32;;;;;;;;;;5093489;28;20034;-61
2021/09/20 13:09:56;;;;;;;4.88;4.00;;;;;;;;;;5093809;28;20054;-61
2021/09/20 13:12:23;;;;;;;7.45;3.75;;;;;;;;;;5094822;28;20468;-61
2021/09/20 13:14:55;;;;;;;4.50;3.75;;;;;;;;;;5094737;28;20024;-61
2021/09/20 13:17:40;;;;;;;4.88;4.22;;;;;;;;;;5093492;28;20154;-61
2021/09/20 13:20:07;;;;;;;11.20;4.30;;;;;;;;;;5094867;28;20032;-61
2021/09/20 13:22:45;;;;;;;5.68;3.47;;;;;;;;;;5094682;28;20024;-61
2021/09/20 13:25:22;;;;;;;3.97;3.03;;;;;;;;;;5094813;28;20035;-61
2021/09/20 13:27:48;;;;;;;3.33;3.10;;;;;;;;;;5094670;28;20024;-63
2021/09/20 13:30:17;;;;;;;3.25;2.95;;;;;;;;;;5094478;28;20564;-63
2021/09/20 13:32:44;;;;;;;3.67;3.35;;;;;;;;;;5094509;28;20497;-63
2021/09/20 13:35:29;;;;;;;3.10;2.80;;;;;;;;;;5093180;28;20020;-63
2021/09/20 13:37:56;;;;;;;4.00;2.88;;;;;;;;;;5092980;28;20504;-63
2021/09/20 13:40:22;;;;;;;2.42;2.25;;;;;;;;;;5094368;28;20038;-63
2021/09/20 13:42:48;;;;;;;2.75;2.50;;;;;;;;;;5093898;28;20040;-63
2021/09/20 13:45:14;;;;;;;2.47;2.28;;;;;;;;;;5094530;28;20066;-63
2021/09/20 13:47:40;;;;;;;4.10;2.50;;;;;;;;;;5094245;28;20028;-60
2021/09/20 13:50:06;;;;;;;2.95;2.65;;;;;;;;;;5094255;28;20102;-61
2021/09/20 13:52:32;;;;;;;2.80;2.60;;;;;;;;;;5094187;28;20031;-63
2021/09/20 13:54:57;;;;;;;2.67;2.47;;;;;;;;;;5094190;28;20027;-63
2021/09/20 13:57:23;;;;;;;4.13;2.45;;;;;;;;;;5094493;28;20020;-63
2021/09/20 13:59:48;;;;;;;3.13;2.28;;;;;;;;;;5090571;28;20480;-63
2021/09/20 14:02:14;;;;;;;2.58;2.38;;;;;;;;;;5091638;28;20113;-63
2021/09/20 14:04:39;;;;;;;2.75;2.50;;;;;;;;;;5091229;28;20077;-61
2021/09/20 14:07:05;;;;;;;3.00;2.80;;;;;;;;;;5089344;28;20032;-60
2021/09/20 14:09:30;;;;;;;3.17;2.88;;;;;;;;;;5088986;28;20426;-61
2021/09/20 14:11:56;;;;;;;3.42;2.72;;;;;;;;;;5084900;28;20145;-60
2021/09/20 14:14:21;;;;;;;5.18;3.83;;;;;;;;;;5089730;28;20103;-61
2021/09/20 14:16:48;;;;;;;8.27;6.80;;;;;;;;;;5086250;28;20036;-60
2021/09/20 14:19:16;;;;;;;24.23;17.70;;;;;;;;;;5089537;28;20021;-61
2021/09/20 14:21:43;;;;;;;24.52;16.10;;;;;;;;;;5092110;28;20102;-61
2021/09/20 14:24:09;;;;;;;30.73;19.00;;;;;;;;;;5093205;28;20024;-61
2021/09/20 14:26:34;;;;;;;28.02;18.10;;;;;;;;;;5093736;28;20043;-61
2021/09/20 14:29:00;;;;;;;16.77;13.13;;;;;;;;;;5086252;28;20081;-61
2021/09/20 14:31:25;;;;;;;8.18;7.30;;;;;;;;;;5084494;28;20107;-61
2021/09/20 14:33:52;;;;;;;49.40;13.43;;;;;;;;;;5085876;28;20016;-61
2021/09/20 14:36:18;;;;;;;19.45;7.15;;;;;;;;;;5085755;28;20116;-61
2021/09/20 14:38:43;;;;;;;4.65;3.70;;;;;;;;;;5086385;28;20958;-61
2021/09/20 14:41:09;;;;;;;3.97;3.47;;;;;;;;;;5089711;28;20039;-61